sensor_id;sensor_type;location;lat;lon;timestamp;P1;durP1;ratioP1;P2;durP2;ratioP2
15871;SDS011;8035;51.962;7.162;2023-04-24T00:01:49;2.57;;;2.37;;
15871;SDS011;8035;51.962;7.162;2023-04-24T00:04:16;3.13;;;2.50;;
15871;SDS011;8035;51.962;7.162;2023-04-24T00:06:43;2.83;;;2.30;;
15871;SDS011;8035;51.962;7.162;2023-04-24T00:09:09;3.50;;;2.60;;
15871;SDS011;8035;51.962;7.162;2023-04-24T00:11:35;2.90;;;2.57;;
15871;SDS011;8035;51.962;7.162;2023-04-24T00:14:02;2.50;;;2.30;;
15871;SDS011;8035;51.962;7.162;2023-04-24T00:16:28;2.97;;;2.50;;
15871;SDS011;8035;51.962;7.162;2023-04-24T00:18:54;4.60;;;3.10;;
15871;SDS011;8035;51.962;7.162;2023-04-24T00:21:20;3.73;;;2.63;;
15871;SDS011;8035;51.962;7.162;2023-04-24T00:23:46;4.63;;;3.23;;
15871;SDS011;8035;51.962;7.162;2023-04-24T00:26:12;3.60;;;2.50;;
15871;SDS011;8035;51.962;7.162;2023-04-24T00:28:38;6.03;;;3.43;;
15871;SDS011;8035;51.962;7.162;2023-04-24T00:31:05;3.77;;;2.40;;
15871;SDS011;8035;51.962;7.162;2023-04-24T00:33:31;3.97;;;3.20;;
15871;SDS011;8035;51.962;7.162;2023-04-24T00:35:57;3.63;;;2.60;;
15871;SDS011;8035;51.962;7.162;2023-04-24T00:38:23;3.30;;;2.23;;
15871;SDS011;8035;51.962;7.162;2023-04-24T00:40:49;3.67;;;2.37;;
15871;SDS011;8035;51.962;7.162;2023-04-24T00:43:15;2.40;;;2.20;;
15871;SDS011;8035;51.962;7.162;2023-04-24T00:45:41;3.20;;;2.40;;
15871;SDS011;8035;51.962;7.162;2023-04-24T00:48:08;5.60;;;3.07;;
15871;SDS011;8035;51.962;7.162;2023-04-24T00:50:35;2.83;;;2.63;;
15871;SDS011;8035;51.962;7.162;2023-04-24T00:53:01;2.33;;;2.03;;
15871;SDS011;8035;51.962;7.162;2023-04-24T00:55:27;3.87;;;3.03;;
15871;SDS011;8035;51.962;7.162;2023-04-24T00:57:53;2.77;;;2.40;;
15871;SDS011;8035;51.962;7.162;2023-04-24T01:00:20;2.57;;;2.37;;
15871;SDS011;8035;51.962;7.162;2023-04-24T01:02:46;3.50;;;2.27;;
15871;SDS011;8035;51.962;7.162;2023-04-24T01:05:13;4.33;;;3.00;;
15871;SDS011;8035;51.962;7.162;2023-04-24T01:07:40;4.20;;;2.80;;
15871;SDS011;8035;51.962;7.162;2023-04-24T01:10:09;3.00;;;2.70;;
15871;SDS011;8035;51.962;7.162;2023-04-24T01:12:35;3.70;;;3.30;;
15871;SDS011;8035;51.962;7.162;2023-04-24T01:15:01;3.80;;;3.40;;
15871;SDS011;8035;51.962;7.162;2023-04-24T01:17:28;6.23;;;3.13;;
15871;SDS011;8035;51.962;7.162;2023-04-24T01:19:54;4.40;;;3.30;;
15871;SDS011;8035;51.962;7.162;2023-04-24T01:22:24;5.20;;;2.80;;
15871;SDS011;8035;51.962;7.162;2023-04-24T01:24:51;4.60;;;3.47;;
15871;SDS011;8035;51.962;7.162;2023-04-24T01:27:17;3.87;;;3.50;;
15871;SDS011;8035;51.962;7.162;2023-04-24T01:29:43;3.93;;;3.00;;
15871;SDS011;8035;51.962;7.162;2023-04-24T01:32:09;3.40;;;3.10;;
15871;SDS011;8035;51.962;7.162;2023-04-24T01:34:35;4.57;;;3.00;;
15871;SDS011;8035;51.962;7.162;2023-04-24T01:37:01;4.17;;;3.17;;
15871;SDS011;8035;51.962;7.162;2023-04-24T01:39:27;3.23;;;2.83;;
15871;SDS011;8035;51.962;7.162;2023-04-24T01:41:54;3.20;;;2.83;;
15871;SDS011;8035;51.962;7.162;2023-04-24T01:44:20;3.10;;;2.63;;
15871;SDS011;8035;51.962;7.162;2023-04-24T01:46:47;3.77;;;3.47;;
15871;SDS011;8035;51.962;7.162;2023-04-24T01:49:13;3.73;;;3.43;;
15871;SDS011;8035;51.962;7.162;2023-04-24T01:51:39;4.40;;;3.20;;
15871;SDS011;8035;51.962;7.162;2023-04-24T01:54:05;5.00;;;3.70;;
15871;SDS011;8035;51.962;7.162;2023-04-24T01:56:31;4.37;;;3.90;;
15871;SDS011;8035;51.962;7.162;2023-04-24T01:58:58;5.10;;;4.13;;
15871;SDS011;8035;51.962;7.162;2023-04-24T02:01:25;4.30;;;3.70;;
15871;SDS011;8035;51.962;7.162;2023-04-24T02:03:51;5.07;;;3.60;;
15871;SDS011;8035;51.962;7.162;2023-04-24T02:06:17;6.87;;;3.97;;
15871;SDS011;8035;51.962;7.162;2023-04-24T02:08:43;4.37;;;3.70;;
15871;SDS011;8035;51.962;7.162;2023-04-24T02:11:09;3.93;;;3.43;;
15871;SDS011;8035;51.962;7.162;2023-04-24T02:13:35;4.50;;;4.10;;
15871;SDS011;8035;51.962;7.162;2023-04-24T02:16:02;5.50;;;4.27;;
15871;SDS011;8035;51.962;7.162;2023-04-24T02:18:28;4.10;;;3.70;;
15871;SDS011;8035;51.962;7.162;2023-04-24T02:20:53;5.10;;;4.00;;
15871;SDS011;8035;51.962;7.162;2023-04-24T02:23:20;6.10;;;4.43;;
15871;SDS011;8035;51.962;7.162;2023-04-24T02:25:46;4.83;;;4.43;;
15871;SDS011;8035;51.962;7.162;2023-04-24T02:28:12;5.13;;;4.63;;
15871;SDS011;8035;51.962;7.162;2023-04-24T02:30:38;5.60;;;4.73;;
15871;SDS011;8035;51.962;7.162;2023-04-24T02:33:04;5.33;;;4.73;;
15871;SDS011;8035;51.962;7.162;2023-04-24T02:35:30;6.07;;;5.47;;
15871;SDS011;8035;51.962;7.162;2023-04-24T02:37:56;6.87;;;5.10;;
15871;SDS011;8035;51.962;7.162;2023-04-24T02:40:22;6.00;;;5.23;;
15871;SDS011;8035;51.962;7.162;2023-04-24T02:42:48;6.03;;;5.43;;
15871;SDS011;8035;51.962;7.162;2023-04-24T02:45:14;8.50;;;5.73;;
15871;SDS011;8035;51.962;7.162;2023-04-24T02:47:41;7.20;;;6.10;;
15871;SDS011;8035;51.962;7.162;2023-04-24T02:50:07;6.30;;;5.20;;
15871;SDS011;8035;51.962;7.162;2023-04-24T02:52:33;7.97;;;6.00;;
15871;SDS011;8035;51.962;7.162;2023-04-24T02:54:59;8.43;;;6.40;;
15871;SDS011;8035;51.962;7.162;2023-04-24T02:57:25;8.63;;;6.23;;
15871;SDS011;8035;51.962;7.162;2023-04-24T02:59:51;6.47;;;5.87;;
15871;SDS011;8035;51.962;7.162;2023-04-24T03:02:17;7.97;;;6.80;;
15871;SDS011;8035;51.962;7.162;2023-04-24T03:04:43;13.07;;;7.30;;
15871;SDS011;8035;51.962;7.162;2023-04-24T03:07:09;8.63;;;7.27;;
15871;SDS011;8035;51.962;7.162;2023-04-24T03:09:35;9.80;;;6.90;;
15871;SDS011;8035;51.962;7.162;2023-04-24T03:12:01;8.97;;;7.23;;
15871;SDS011;8035;51.962;7.162;2023-04-24T03:14:26;9.10;;;6.70;;
15871;SDS011;8035;51.962;7.162;2023-04-24T03:16:56;9.30;;;7.73;;
15871;SDS011;8035;51.962;7.162;2023-04-24T03:19:22;9.20;;;6.93;;
15871;SDS011;8035;51.962;7.162;2023-04-24T03:21:48;9.37;;;7.43;;
15871;SDS011;8035;51.962;7.162;2023-04-24T03:24:14;10.20;;;7.33;;
15871;SDS011;8035;51.962;7.162;2023-04-24T03:26:41;9.97;;;7.63;;
15871;SDS011;8035;51.962;7.162;2023-04-24T03:29:07;10.67;;;8.70;;
15871;SDS011;8035;51.962;7.162;2023-04-24T03:31:33;10.13;;;7.30;;
15871;SDS011;8035;51.962;7.162;2023-04-24T03:33:58;12.57;;;8.30;;
15871;SDS011;8035;51.962;7.162;2023-04-24T03:36:25;11.90;;;8.80;;
15871;SDS011;8035;51.962;7.162;2023-04-24T03:38:51;13.53;;;8.43;;
15871;SDS011;8035;51.962;7.162;2023-04-24T03:41:17;10.47;;;8.17;;
15871;SDS011;8035;51.962;7.162;2023-04-24T03:43:43;12.23;;;9.43;;
15871;SDS011;8035;51.962;7.162;2023-04-24T03:46:09;11.17;;;8.83;;
15871;SDS011;8035;51.962;7.162;2023-04-24T03:48:35;9.90;;;8.80;;
15871;SDS011;8035;51.962;7.162;2023-04-24T03:51:01;12.23;;;9.43;;
15871;SDS011;8035;51.962;7.162;2023-04-24T03:53:27;13.43;;;9.00;;
15871;SDS011;8035;51.962;7.162;2023-04-24T03:55:53;14.47;;;9.13;;
15871;SDS011;8035;51.962;7.162;2023-04-24T03:58:20;13.27;;;9.30;;
15871;SDS011;8035;51.962;7.162;2023-04-24T04:00:45;11.80;;;10.40;;
15871;SDS011;8035;51.962;7.162;2023-04-24T04:03:13;12.23;;;9.20;;
15871;SDS011;8035;51.962;7.162;2023-04-24T04:05:39;12.00;;;9.20;;
15871;SDS011;8035;51.962;7.162;2023-04-24T04:08:05;12.53;;;9.00;;
15871;SDS011;8035;51.962;7.162;2023-04-24T04:10:31;12.10;;;10.03;;
15871;SDS011;8035;51.962;7.162;2023-04-24T04:12:57;16.37;;;9.60;;
15871;SDS011;8035;51.962;7.162;2023-04-24T04:15:23;11.67;;;9.57;;
15871;SDS011;8035;51.962;7.162;2023-04-24T04:17:49;15.73;;;8.90;;
15871;SDS011;8035;51.962;7.162;2023-04-24T04:20:15;12.30;;;10.20;;
15871;SDS011;8035;51.962;7.162;2023-04-24T04:22:41;12.93;;;10.23;;
15871;SDS011;8035;51.962;7.162;2023-04-24T04:25:07;16.07;;;10.37;;
15871;SDS011;8035;51.962;7.162;2023-04-24T04:27:33;15.33;;;11.37;;
15871;SDS011;8035;51.962;7.162;2023-04-24T04:30:01;13.77;;;11.47;;
15871;SDS011;8035;51.962;7.162;2023-04-24T04:32:30;15.20;;;11.57;;
15871;SDS011;8035;51.962;7.162;2023-04-24T04:34:56;14.97;;;11.13;;
15871;SDS011;8035;51.962;7.162;2023-04-24T04:37:22;13.83;;;11.17;;
15871;SDS011;8035;51.962;7.162;2023-04-24T04:39:48;15.90;;;10.80;;
15871;SDS011;8035;51.962;7.162;2023-04-24T04:42:14;13.47;;;10.40;;
15871;SDS011;8035;51.962;7.162;2023-04-24T04:44:40;17.50;;;11.57;;
15871;SDS011;8035;51.962;7.162;2023-04-24T04:47:06;13.93;;;11.70;;
15871;SDS011;8035;51.962;7.162;2023-04-24T04:49:33;14.77;;;11.50;;
15871;SDS011;8035;51.962;7.162;2023-04-24T04:51:59;14.10;;;11.17;;
15871;SDS011;8035;51.962;7.162;2023-04-24T04:54:25;18.23;;;11.83;;
15871;SDS011;8035;51.962;7.162;2023-04-24T04:56:51;18.43;;;12.63;;
15871;SDS011;8035;51.962;7.162;2023-04-24T04:59:17;17.70;;;12.40;;
15871;SDS011;8035;51.962;7.162;2023-04-24T05:01:43;14.80;;;11.40;;
15871;SDS011;8035;51.962;7.162;2023-04-24T05:04:09;16.93;;;11.83;;
15871;SDS011;8035;51.962;7.162;2023-04-24T05:06:35;15.87;;;12.23;;
15871;SDS011;8035;51.962;7.162;2023-04-24T05:09:01;17.00;;;11.80;;
15871;SDS011;8035;51.962;7.162;2023-04-24T05:11:28;15.27;;;12.37;;
15871;SDS011;8035;51.962;7.162;2023-04-24T05:13:55;22.40;;;11.57;;
15871;SDS011;8035;51.962;7.162;2023-04-24T05:16:21;15.43;;;11.93;;
15871;SDS011;8035;51.962;7.162;2023-04-24T05:18:47;14.80;;;11.57;;
15871;SDS011;8035;51.962;7.162;2023-04-24T05:21:13;17.77;;;11.80;;
15871;SDS011;8035;51.962;7.162;2023-04-24T05:23:39;15.67;;;11.90;;
15871;SDS011;8035;51.962;7.162;2023-04-24T05:26:05;15.50;;;11.77;;
15871;SDS011;8035;51.962;7.162;2023-04-24T05:28:31;14.53;;;11.07;;
15871;SDS011;8035;51.962;7.162;2023-04-24T05:30:57;15.80;;;11.73;;
15871;SDS011;8035;51.962;7.162;2023-04-24T05:33:24;15.00;;;11.37;;
15871;SDS011;8035;51.962;7.162;2023-04-24T05:35:50;13.27;;;11.00;;
15871;SDS011;8035;51.962;7.162;2023-04-24T05:38:16;15.47;;;11.07;;
15871;SDS011;8035;51.962;7.162;2023-04-24T05:40:45;15.53;;;11.17;;
15871;SDS011;8035;51.962;7.162;2023-04-24T05:43:11;14.13;;;11.13;;
15871;SDS011;8035;51.962;7.162;2023-04-24T05:45:38;14.03;;;10.43;;
15871;SDS011;8035;51.962;7.162;2023-04-24T05:48:04;13.73;;;10.47;;
15871;SDS011;8035;51.962;7.162;2023-04-24T05:50:30;13.27;;;11.37;;
15871;SDS011;8035;51.962;7.162;2023-04-24T05:52:56;13.67;;;9.93;;
15871;SDS011;8035;51.962;7.162;2023-04-24T05:55:27;13.93;;;10.60;;
15871;SDS011;8035;51.962;7.162;2023-04-24T05:57:53;14.37;;;9.33;;
15871;SDS011;8035;51.962;7.162;2023-04-24T06:00:20;11.23;;;9.43;;
15871;SDS011;8035;51.962;7.162;2023-04-24T06:02:46;15.60;;;9.90;;
15871;SDS011;8035;51.962;7.162;2023-04-24T06:05:12;12.50;;;10.10;;
15871;SDS011;8035;51.962;7.162;2023-04-24T06:07:39;11.97;;;9.57;;
15871;SDS011;8035;51.962;7.162;2023-04-24T06:10:05;9.80;;;8.27;;
15871;SDS011;8035;51.962;7.162;2023-04-24T06:12:31;11.73;;;9.10;;
15871;SDS011;8035;51.962;7.162;2023-04-24T06:14:57;14.33;;;9.40;;
15871;SDS011;8035;51.962;7.162;2023-04-24T06:17:25;11.13;;;9.03;;
15871;SDS011;8035;51.962;7.162;2023-04-24T06:19:51;10.67;;;9.00;;
15871;SDS011;8035;51.962;7.162;2023-04-24T06:22:17;9.93;;;8.03;;
15871;SDS011;8035;51.962;7.162;2023-04-24T06:24:43;9.23;;;7.40;;
15871;SDS011;8035;51.962;7.162;2023-04-24T06:27:09;10.57;;;8.00;;
15871;SDS011;8035;51.962;7.162;2023-04-24T06:29:35;9.10;;;7.50;;
15871;SDS011;8035;51.962;7.162;2023-04-24T06:32:01;11.00;;;7.80;;
15871;SDS011;8035;51.962;7.162;2023-04-24T06:34:27;11.03;;;8.40;;
15871;SDS011;8035;51.962;7.162;2023-04-24T06:36:55;8.83;;;7.70;;
15871;SDS011;8035;51.962;7.162;2023-04-24T06:39:21;9.63;;;7.60;;
15871;SDS011;8035;51.962;7.162;2023-04-24T06:41:47;9.50;;;6.87;;
15871;SDS011;8035;51.962;7.162;2023-04-24T06:44:13;8.97;;;6.67;;
15871;SDS011;8035;51.962;7.162;2023-04-24T06:46:40;8.90;;;7.33;;
15871;SDS011;8035;51.962;7.162;2023-04-24T06:49:06;8.67;;;6.70;;
15871;SDS011;8035;51.962;7.162;2023-04-24T06:51:32;10.73;;;7.13;;
15871;SDS011;8035;51.962;7.162;2023-04-24T06:53:58;7.93;;;6.87;;
15871;SDS011;8035;51.962;7.162;2023-04-24T06:56:25;7.60;;;6.73;;
15871;SDS011;8035;51.962;7.162;2023-04-24T06:58:51;8.17;;;6.50;;
15871;SDS011;8035;51.962;7.162;2023-04-24T07:01:18;8.33;;;7.37;;
15871;SDS011;8035;51.962;7.162;2023-04-24T07:03:44;8.37;;;6.77;;
15871;SDS011;8035;51.962;7.162;2023-04-24T07:06:10;7.90;;;6.80;;
15871;SDS011;8035;51.962;7.162;2023-04-24T07:08:37;8.53;;;6.30;;
15871;SDS011;8035;51.962;7.162;2023-04-24T07:11:03;7.03;;;6.30;;
15871;SDS011;8035;51.962;7.162;2023-04-24T07:13:29;7.33;;;6.47;;
15871;SDS011;8035;51.962;7.162;2023-04-24T07:15:55;7.47;;;6.63;;
15871;SDS011;8035;51.962;7.162;2023-04-24T07:18:21;8.30;;;6.67;;
15871;SDS011;8035;51.962;7.162;2023-04-24T07:20:47;8.80;;;6.23;;
15871;SDS011;8035;51.962;7.162;2023-04-24T07:23:17;8.77;;;5.73;;
15871;SDS011;8035;51.962;7.162;2023-04-24T07:25:43;6.80;;;5.80;;
15871;SDS011;8035;51.962;7.162;2023-04-24T07:28:09;6.23;;;5.57;;
15871;SDS011;8035;51.962;7.162;2023-04-24T07:30:35;6.73;;;6.00;;
15871;SDS011;8035;51.962;7.162;2023-04-24T07:33:01;7.03;;;6.17;;
15871;SDS011;8035;51.962;7.162;2023-04-24T07:35:27;8.00;;;6.13;;
15871;SDS011;8035;51.962;7.162;2023-04-24T07:37:53;6.63;;;5.57;;
15871;SDS011;8035;51.962;7.162;2023-04-24T07:40:19;8.70;;;5.57;;
15871;SDS011;8035;51.962;7.162;2023-04-24T07:42:46;6.13;;;5.40;;
15871;SDS011;8035;51.962;7.162;2023-04-24T07:45:13;8.77;;;5.77;;
15871;SDS011;8035;51.962;7.162;2023-04-24T07:47:41;8.37;;;5.70;;
15871;SDS011;8035;51.962;7.162;2023-04-24T07:50:08;7.67;;;5.70;;
15871;SDS011;8035;51.962;7.162;2023-04-24T07:52:35;6.47;;;5.20;;
15871;SDS011;8035;51.962;7.162;2023-04-24T07:55:01;7.13;;;6.03;;
15871;SDS011;8035;51.962;7.162;2023-04-24T07:57:27;6.83;;;6.00;;
15871;SDS011;8035;51.962;7.162;2023-04-24T07:59:54;6.13;;;5.33;;
15871;SDS011;8035;51.962;7.162;2023-04-24T08:02:20;6.97;;;5.53;;
15871;SDS011;8035;51.962;7.162;2023-04-24T08:04:51;5.53;;;4.93;;
15871;SDS011;8035;51.962;7.162;2023-04-24T08:07:17;7.27;;;5.13;;
15871;SDS011;8035;51.962;7.162;2023-04-24T08:09:43;6.80;;;5.00;;
15871;SDS011;8035;51.962;7.162;2023-04-24T08:12:09;5.13;;;4.70;;
15871;SDS011;8035;51.962;7.162;2023-04-24T08:14:35;5.27;;;4.77;;
15871;SDS011;8035;51.962;7.162;2023-04-24T08:17:01;5.00;;;4.23;;
15871;SDS011;8035;51.962;7.162;2023-04-24T08:19:28;4.60;;;4.20;;
15871;SDS011;8035;51.962;7.162;2023-04-24T08:21:54;4.73;;;4.10;;
15871;SDS011;8035;51.962;7.162;2023-04-24T08:24:20;4.53;;;4.13;;
15871;SDS011;8035;51.962;7.162;2023-04-24T08:26:46;5.13;;;4.60;;
15871;SDS011;8035;51.962;7.162;2023-04-24T08:29:15;4.87;;;4.40;;
15871;SDS011;8035;51.962;7.162;2023-04-24T08:31:41;4.87;;;4.40;;
15871;SDS011;8035;51.962;7.162;2023-04-24T08:34:07;6.93;;;5.30;;
15871;SDS011;8035;51.962;7.162;2023-04-24T08:36:33;5.43;;;4.93;;
15871;SDS011;8035;51.962;7.162;2023-04-24T08:38:59;5.87;;;4.67;;
15871;SDS011;8035;51.962;7.162;2023-04-24T08:41:25;6.47;;;5.57;;
15871;SDS011;8035;51.962;7.162;2023-04-24T08:43:52;6.57;;;4.60;;
15871;SDS011;8035;51.962;7.162;2023-04-24T08:46:20;7.27;;;4.73;;
15871;SDS011;8035;51.962;7.162;2023-04-24T08:48:46;5.00;;;4.50;;
15871;SDS011;8035;51.962;7.162;2023-04-24T08:51:15;5.47;;;4.93;;
15871;SDS011;8035;51.962;7.162;2023-04-24T08:53:42;6.17;;;4.60;;
15871;SDS011;8035;51.962;7.162;2023-04-24T08:56:08;5.90;;;5.10;;
15871;SDS011;8035;51.962;7.162;2023-04-24T08:58:35;4.77;;;4.27;;
15871;SDS011;8035;51.962;7.162;2023-04-24T09:01:01;5.27;;;4.70;;
15871;SDS011;8035;51.962;7.162;2023-04-24T09:03:27;5.10;;;4.10;;
15871;SDS011;8035;51.962;7.162;2023-04-24T09:05:53;4.40;;;4.00;;
15871;SDS011;8035;51.962;7.162;2023-04-24T09:08:21;4.33;;;3.93;;
15871;SDS011;8035;51.962;7.162;2023-04-24T09:10:48;4.27;;;3.83;;
15871;SDS011;8035;51.962;7.162;2023-04-24T09:13:14;4.53;;;3.20;;
15871;SDS011;8035;51.962;7.162;2023-04-24T09:15:40;3.77;;;3.23;;
15871;SDS011;8035;51.962;7.162;2023-04-24T09:18:07;4.00;;;3.60;;
15871;SDS011;8035;51.962;7.162;2023-04-24T09:20:33;5.17;;;3.60;;
15871;SDS011;8035;51.962;7.162;2023-04-24T09:23:01;4.03;;;3.60;;
15871;SDS011;8035;51.962;7.162;2023-04-24T09:25:33;6.00;;;3.90;;
15871;SDS011;8035;51.962;7.162;2023-04-24T09:28:04;4.03;;;3.63;;
15871;SDS011;8035;51.962;7.162;2023-04-24T09:30:31;6.07;;;3.87;;
15871;SDS011;8035;51.962;7.162;2023-04-24T09:33:10;4.40;;;4.00;;
15871;SDS011;8035;51.962;7.162;2023-04-24T09:35:39;4.40;;;4.00;;
15871;SDS011;8035;51.962;7.162;2023-04-24T09:38:05;5.83;;;4.10;;
15871;SDS011;8035;51.962;7.162;2023-04-24T09:40:31;4.70;;;3.80;;
15871;SDS011;8035;51.962;7.162;2023-04-24T09:42:59;5.00;;;4.20;;
15871;SDS011;8035;51.962;7.162;2023-04-24T09:45:28;4.20;;;3.90;;
15871;SDS011;8035;51.962;7.162;2023-04-24T09:47:54;4.80;;;3.60;;
15871;SDS011;8035;51.962;7.162;2023-04-24T09:50:21;4.60;;;3.30;;
15871;SDS011;8035;51.962;7.162;2023-04-24T09:52:56;4.40;;;3.77;;
15871;SDS011;8035;51.962;7.162;2023-04-24T09:55:22;5.50;;;2.70;;
15871;SDS011;8035;51.962;7.162;2023-04-24T09:57:49;5.40;;;3.07;;
15871;SDS011;8035;51.962;7.162;2023-04-24T10:00:23;4.03;;;3.17;;
15871;SDS011;8035;51.962;7.162;2023-04-24T10:02:50;3.50;;;3.20;;
15871;SDS011;8035;51.962;7.162;2023-04-24T10:05:16;4.80;;;4.27;;
15871;SDS011;8035;51.962;7.162;2023-04-24T10:07:43;4.77;;;4.23;;
15871;SDS011;8035;51.962;7.162;2023-04-24T10:10:10;5.90;;;4.73;;
15871;SDS011;8035;51.962;7.162;2023-04-24T10:12:36;5.77;;;4.50;;
15871;SDS011;8035;51.962;7.162;2023-04-24T10:15:02;5.83;;;4.80;;
15871;SDS011;8035;51.962;7.162;2023-04-24T10:17:28;5.03;;;4.27;;
15871;SDS011;8035;51.962;7.162;2023-04-24T10:19:54;5.63;;;4.77;;
15871;SDS011;8035;51.962;7.162;2023-04-24T10:22:21;6.20;;;5.07;;
15871;SDS011;8035;51.962;7.162;2023-04-24T10:24:47;6.43;;;4.80;;
15871;SDS011;8035;51.962;7.162;2023-04-24T10:27:14;5.93;;;5.13;;
15871;SDS011;8035;51.962;7.162;2023-04-24T10:29:41;5.63;;;5.13;;
15871;SDS011;8035;51.962;7.162;2023-04-24T10:32:08;7.93;;;5.43;;
15871;SDS011;8035;51.962;7.162;2023-04-24T10:34:36;6.53;;;4.97;;
15871;SDS011;8035;51.962;7.162;2023-04-24T10:37:02;8.37;;;6.10;;
15871;SDS011;8035;51.962;7.162;2023-04-24T10:39:28;8.13;;;5.60;;
15871;SDS011;8035;51.962;7.162;2023-04-24T10:41:55;8.23;;;5.50;;
15871;SDS011;8035;51.962;7.162;2023-04-24T10:44:22;5.83;;;5.33;;
15871;SDS011;8035;51.962;7.162;2023-04-24T10:46:52;6.30;;;4.77;;
15871;SDS011;8035;51.962;7.162;2023-04-24T10:49:20;9.50;;;5.73;;
15871;SDS011;8035;51.962;7.162;2023-04-24T10:51:53;7.50;;;5.13;;
15871;SDS011;8035;51.962;7.162;2023-04-24T10:56:49;7.57;;;5.37;;
15871;SDS011;8035;51.962;7.162;2023-04-24T10:59:28;5.57;;;4.93;;
15871;SDS011;8035;51.962;7.162;2023-04-24T11:02:02;5.50;;;4.67;;
15871;SDS011;8035;51.962;7.162;2023-04-24T11:04:32;5.63;;;4.63;;
15871;SDS011;8035;51.962;7.162;2023-04-24T11:06:58;6.00;;;3.83;;
15871;SDS011;8035;51.962;7.162;2023-04-24T11:09:28;4.73;;;3.63;;
15871;SDS011;8035;51.962;7.162;2023-04-24T11:12:05;6.53;;;3.67;;
15871;SDS011;8035;51.962;7.162;2023-04-24T11:20:00;5.97;;;3.90;;
15871;SDS011;8035;51.962;7.162;2023-04-24T11:22:26;8.43;;;4.07;;
15871;SDS011;8035;51.962;7.162;2023-04-24T11:24:53;8.70;;;4.00;;
15871;SDS011;8035;51.962;7.162;2023-04-24T11:27:20;8.07;;;4.30;;
15871;SDS011;8035;51.962;7.162;2023-04-24T11:29:47;7.00;;;4.13;;
15871;SDS011;8035;51.962;7.162;2023-04-24T11:34:47;10.03;;;4.73;;
15871;SDS011;8035;51.962;7.162;2023-04-24T11:37:14;8.40;;;4.17;;
15871;SDS011;8035;51.962;7.162;2023-04-24T11:39:40;11.63;;;5.60;;
15871;SDS011;8035;51.962;7.162;2023-04-24T11:42:06;5.60;;;4.17;;
15871;SDS011;8035;51.962;7.162;2023-04-24T11:44:33;11.03;;;4.67;;
15871;SDS011;8035;51.962;7.162;2023-04-24T11:47:02;8.53;;;4.70;;
15871;SDS011;8035;51.962;7.162;2023-04-24T11:49:28;9.60;;;4.60;;
15871;SDS011;8035;51.962;7.162;2023-04-24T11:51:57;9.37;;;4.13;;
15871;SDS011;8035;51.962;7.162;2023-04-24T11:54:23;10.63;;;4.50;;
15871;SDS011;8035;51.962;7.162;2023-04-24T11:56:49;9.63;;;4.30;;
15871;SDS011;8035;51.962;7.162;2023-04-24T11:59:15;8.73;;;3.93;;
15871;SDS011;8035;51.962;7.162;2023-04-24T12:01:44;7.87;;;4.77;;
15871;SDS011;8035;51.962;7.162;2023-04-24T12:04:11;9.97;;;4.50;;
15871;SDS011;8035;51.962;7.162;2023-04-24T12:06:37;9.57;;;4.23;;
15871;SDS011;8035;51.962;7.162;2023-04-24T12:09:03;5.80;;;3.73;;
15871;SDS011;8035;51.962;7.162;2023-04-24T12:11:29;6.90;;;3.87;;
15871;SDS011;8035;51.962;7.162;2023-04-24T12:13:55;7.50;;;4.63;;
15871;SDS011;8035;51.962;7.162;2023-04-24T12:16:23;9.70;;;4.60;;
15871;SDS011;8035;51.962;7.162;2023-04-24T12:18:50;9.93;;;4.33;;
15871;SDS011;8035;51.962;7.162;2023-04-24T12:21:18;12.53;;;4.57;;
15871;SDS011;8035;51.962;7.162;2023-04-24T12:23:44;6.30;;;4.27;;
15871;SDS011;8035;51.962;7.162;2023-04-24T12:26:11;7.17;;;4.40;;
15871;SDS011;8035;51.962;7.162;2023-04-24T12:28:38;7.43;;;3.63;;
15871;SDS011;8035;51.962;7.162;2023-04-24T12:31:04;7.30;;;3.83;;
15871;SDS011;8035;51.962;7.162;2023-04-24T12:33:35;5.80;;;3.23;;
15871;SDS011;8035;51.962;7.162;2023-04-24T12:36:01;6.50;;;3.53;;
15871;SDS011;8035;51.962;7.162;2023-04-24T12:38:28;7.93;;;3.67;;
15871;SDS011;8035;51.962;7.162;2023-04-24T12:41:05;8.93;;;3.40;;
15871;SDS011;8035;51.962;7.162;2023-04-24T12:43:32;6.47;;;2.87;;
15871;SDS011;8035;51.962;7.162;2023-04-24T12:45:58;6.93;;;3.60;;
15871;SDS011;8035;51.962;7.162;2023-04-24T12:48:25;8.43;;;3.50;;
15871;SDS011;8035;51.962;7.162;2023-04-24T12:50:51;7.30;;;4.10;;
15871;SDS011;8035;51.962;7.162;2023-04-24T12:53:17;7.53;;;4.50;;
15871;SDS011;8035;51.962;7.162;2023-04-24T12:55:43;6.67;;;4.23;;
15871;SDS011;8035;51.962;7.162;2023-04-24T12:58:09;4.87;;;3.90;;
15871;SDS011;8035;51.962;7.162;2023-04-24T13:00:36;7.83;;;3.60;;
15871;SDS011;8035;51.962;7.162;2023-04-24T13:03:02;6.90;;;3.47;;
15871;SDS011;8035;51.962;7.162;2023-04-24T13:05:28;5.53;;;2.80;;
15871;SDS011;8035;51.962;7.162;2023-04-24T13:07:55;3.90;;;2.07;;
15871;SDS011;8035;51.962;7.162;2023-04-24T13:10:21;2.57;;;2.03;;
15871;SDS011;8035;51.962;7.162;2023-04-24T13:12:47;3.93;;;1.87;;
15871;SDS011;8035;51.962;7.162;2023-04-24T13:15:13;2.20;;;1.97;;
15871;SDS011;8035;51.962;7.162;2023-04-24T13:17:39;3.33;;;1.90;;
15871;SDS011;8035;51.962;7.162;2023-04-24T13:20:05;4.10;;;1.90;;
15871;SDS011;8035;51.962;7.162;2023-04-24T13:22:31;4.33;;;2.10;;
15871;SDS011;8035;51.962;7.162;2023-04-24T13:24:57;3.53;;;2.50;;
15871;SDS011;8035;51.962;7.162;2023-04-24T13:27:23;2.57;;;1.80;;
15871;SDS011;8035;51.962;7.162;2023-04-24T13:29:49;2.00;;;1.80;;
15871;SDS011;8035;51.962;7.162;2023-04-24T13:32:17;2.63;;;2.00;;
15871;SDS011;8035;51.962;7.162;2023-04-24T13:34:43;2.00;;;1.80;;
15871;SDS011;8035;51.962;7.162;2023-04-24T13:37:09;4.43;;;1.70;;
15871;SDS011;8035;51.962;7.162;2023-04-24T13:39:35;2.13;;;1.83;;
15871;SDS011;8035;51.962;7.162;2023-04-24T13:42:01;2.13;;;1.50;;
15871;SDS011;8035;51.962;7.162;2023-04-24T13:44:27;4.07;;;1.50;;
15871;SDS011;8035;51.962;7.162;2023-04-24T13:46:53;1.90;;;1.30;;
15871;SDS011;8035;51.962;7.162;2023-04-24T13:49:21;2.53;;;1.20;;
15871;SDS011;8035;51.962;7.162;2023-04-24T13:51:49;3.63;;;1.30;;
15871;SDS011;8035;51.962;7.162;2023-04-24T13:54:15;4.37;;;1.83;;
15871;SDS011;8035;51.962;7.162;2023-04-24T13:56:41;2.47;;;1.30;;
15871;SDS011;8035;51.962;7.162;2023-04-24T13:59:07;2.77;;;1.70;;
15871;SDS011;8035;51.962;7.162;2023-04-24T14:01:34;2.47;;;1.60;;
15871;SDS011;8035;51.962;7.162;2023-04-24T14:04:00;3.67;;;1.57;;
15871;SDS011;8035;51.962;7.162;2023-04-24T14:06:26;3.70;;;1.90;;
15871;SDS011;8035;51.962;7.162;2023-04-24T14:08:52;2.37;;;1.67;;
15871;SDS011;8035;51.962;7.162;2023-04-24T14:11:18;3.50;;;1.90;;
15871;SDS011;8035;51.962;7.162;2023-04-24T14:13:45;4.37;;;1.80;;
15871;SDS011;8035;51.962;7.162;2023-04-24T14:16:11;4.47;;;1.90;;
15871;SDS011;8035;51.962;7.162;2023-04-24T14:18:37;1.80;;;1.47;;
15871;SDS011;8035;51.962;7.162;2023-04-24T14:21:03;2.67;;;1.60;;
15871;SDS011;8035;51.962;7.162;2023-04-24T14:23:29;3.23;;;1.97;;
15871;SDS011;8035;51.962;7.162;2023-04-24T14:25:56;3.43;;;2.00;;
15871;SDS011;8035;51.962;7.162;2023-04-24T14:28:22;4.63;;;1.83;;
15871;SDS011;8035;51.962;7.162;2023-04-24T14:30:48;2.27;;;1.70;;
15871;SDS011;8035;51.962;7.162;2023-04-24T14:33:15;2.90;;;1.67;;
15871;SDS011;8035;51.962;7.162;2023-04-24T14:35:41;3.50;;;1.60;;
15871;SDS011;8035;51.962;7.162;2023-04-24T14:38:07;2.80;;;1.60;;
15871;SDS011;8035;51.962;7.162;2023-04-24T14:40:34;5.43;;;1.87;;
15871;SDS011;8035;51.962;7.162;2023-04-24T14:43:00;4.47;;;1.90;;
15871;SDS011;8035;51.962;7.162;2023-04-24T16:45:44;6.87;;;2.83;;
15871;SDS011;8035;51.962;7.162;2023-04-24T16:48:10;6.30;;;2.50;;
15871;SDS011;8035;51.962;7.162;2023-04-24T16:50:36;5.80;;;2.43;;
15871;SDS011;8035;51.962;7.162;2023-04-24T16:53:02;8.27;;;2.60;;
15871;SDS011;8035;51.962;7.162;2023-04-24T16:55:28;7.33;;;2.67;;
15871;SDS011;8035;51.962;7.162;2023-04-24T16:57:54;7.77;;;2.40;;
15871;SDS011;8035;51.962;7.162;2023-04-24T17:00:20;7.43;;;2.70;;
15871;SDS011;8035;51.962;7.162;2023-04-24T17:02:46;9.13;;;2.67;;
15871;SDS011;8035;51.962;7.162;2023-04-24T17:05:14;5.50;;;2.60;;